Terminal Aerodrome Forecast
Issued by NWS

Home | Current Version | Previous Version | Text Only | Print | Product List | Glossary Off
Versions: 1 2 3 4 5 6 7 8 9 10 11 12 13 14 15 16 17 18 19 20 21 22 23 24 25

151
FTUS43 KMPX 211720
TAFRWF
TAF
KRWF 211720Z 2118/2218 15015G23KT P6SM SKC
     FM212000 16017G25KT P6SM BKN035
     FM220000 16014KT P6SM SKC
     FM221400 17017G25KT P6SM SCT250=

USA.gov is the U.S. government's official web portal to all federal, state and local government web resources and services.